Weather at Beringin Airport

Public forecast

Using degrees Celsius for public forecast. Weather courtesy of forecast.io.

Closest aviation weather report (METAR) to Beringin Airport

Closest report is Sultan Aji Muhamad Sulaiman Airport, 121.7 nm (225.3 km) E. Retrieved 2020/11/30 00:30 UTC (14 minutes ago):

WALL 300030Z 30003KT 9999 SCT018 27/24 Q1010

Closest aviation forecast (TAF) to Beringin Airport

Forecast is more than 12 hours old.

Closest forecast is Sultan Aji Muhamad Sulaiman Airport, 121.7 nm (225.3 km) E. Retrieved 2020/11/29 12:00 UTC (13 hours ago):

TAF WALL 291100Z 2912/3018 30006KT 8000 FEW017CB SCT018 TEMPO 2912/2915 1000 TSRA FEW010CB BKN012